Stuart, Virginia
Current Conditions -  °F | °C
As of 11:15 AM on Friday 19 Dec 2014 (Local Time) from KMTV Reporting Station
Clear Clear  
Wind Chill: 46°   Ceiling: Unl
Heat Index: 48°   Visibility: 10mi
Dew Point: 23°   Wind: 5mph
Humidity: 38%   Direction: 20°NNE
Pressure: 30.18"   Gusts: 9mph
Location:  36.64°N, 80.27°W
Report Text: KMTV 191615Z AUTO 02004G08KT 10SM CLR 09/M05 A3018 RMK AO2 T00871049
Loading
Personal Weather Stations






























Interactive Weather Map New forecast layout! Learn more

10-Day Weather Forecast

Advertisements
Track Severe Weather on mobile